createdAt,value
2023-03-06T00:05:29.457Z,-6.70
2023-03-06T00:13:53.510Z,-6.32
2023-03-06T00:22:17.071Z,-5.98
2023-03-06T00:30:40.525Z,-5.78
2023-03-06T00:39:04.468Z,-5.69
2023-03-06T00:47:28.021Z,-5.64
2023-03-06T00:55:52.004Z,-5.61
2023-03-06T01:04:15.247Z,-5.58
2023-03-06T01:12:38.463Z,-5.56
2023-03-06T01:21:03.571Z,-5.43
2023-03-06T01:29:27.213Z,-5.28
2023-03-06T01:37:51.522Z,-5.14
2023-03-06T01:46:24.027Z,-5.05
2023-03-06T01:54:54.168Z,-4.98
2023-03-06T02:03:25.377Z,-4.97
2023-03-06T02:11:50.472Z,-4.95
2023-03-06T02:20:20.025Z,-4.91
2023-03-06T02:28:43.574Z,-4.93
2023-03-06T02:37:11.088Z,-5.05
2023-03-06T02:45:48.191Z,-5.22
2023-03-06T02:54:11.574Z,-5.39
2023-03-06T03:02:35.135Z,-5.46
2023-03-06T03:10:58.610Z,-5.44
2023-03-06T03:19:23.912Z,-5.51
2023-03-06T03:27:47.682Z,-5.71
2023-03-06T03:36:11.370Z,-5.92
2023-03-06T03:44:37.668Z,-6.06
2023-03-06T03:53:01.132Z,-6.15
2023-03-06T04:01:34.537Z,-6.30
2023-03-06T04:09:58.852Z,-6.56
2023-03-06T04:18:24.016Z,-6.84
2023-03-06T04:26:48.038Z,-7.02
2023-03-06T04:35:12.592Z,-7.11
2023-03-06T04:43:52.734Z,-7.29
2023-03-06T04:52:16.861Z,-7.56
2023-03-06T05:00:40.330Z,-7.76
2023-03-06T05:09:03.585Z,-7.85
2023-03-06T05:17:27.136Z,-7.96
2023-03-06T05:25:50.434Z,-7.97
2023-03-06T05:34:15.372Z,-7.98
2023-03-06T05:42:38.603Z,-7.96
2023-03-06T05:51:03.062Z,-7.88
2023-03-06T05:59:28.840Z,-7.73
2023-03-06T06:07:51.955Z,-7.66
2023-03-06T06:16:16.743Z,-7.64
2023-03-06T06:24:40.657Z,-7.61
2023-03-06T06:33:04.337Z,-7.47
2023-03-06T06:41:46.299Z,-7.11
2023-03-06T06:50:15.978Z,-5.80
2023-03-06T06:58:39.234Z,-3.69
2023-03-06T07:07:02.481Z,-2.77
2023-03-06T07:15:27.297Z,-2.45
2023-03-06T07:23:51.024Z,-1.95
2023-03-06T07:32:14.269Z,-0.09
2023-03-06T07:40:43.210Z,0.73
2023-03-06T07:49:06.623Z,0.42
2023-03-06T07:57:30.272Z,0.02
2023-03-06T08:16:12.854Z,0.54
2023-03-06T08:26:05.176Z,0.58
2023-03-06T08:35:15.526Z,0.53
2023-03-06T08:43:38.999Z,0.75
2023-03-06T08:52:02.018Z,0.90
2023-03-06T09:00:25.522Z,1.06
2023-03-06T09:08:50.744Z,1.11
2023-03-06T09:17:13.932Z,1.09
2023-03-06T09:25:38.515Z,1.13
2023-03-06T09:34:02.034Z,1.16
2023-03-06T09:42:30.291Z,1.11
2023-03-06T09:51:15.402Z,1.12
2023-03-06T10:01:02.898Z,1.27
2023-03-06T10:10:27.782Z,1.33
2023-03-06T10:20:11.917Z,1.27
2023-03-06T10:30:40.028Z,1.30
2023-03-06T10:40:03.376Z,1.39
2023-03-06T10:48:30.836Z,1.22
2023-03-06T10:57:46.415Z,0.96
2023-03-06T11:07:21.749Z,0.69
2023-03-06T11:16:53.027Z,0.49
2023-03-06T11:26:18.109Z,0.29
2023-03-06T11:35:03.382Z,0.19
2023-03-06T11:44:01.321Z,0.21
2023-03-06T11:52:42.530Z,0.19
2023-03-06T12:02:07.286Z,0.23
2023-03-06T12:10:36.565Z,0.26
2023-03-06T12:19:20.467Z,0.34
2023-03-06T12:28:23.291Z,0.33
2023-03-06T12:37:21.261Z,0.31
2023-03-06T12:45:48.288Z,0.30
2023-03-06T12:54:55.966Z,0.29
2023-03-06T13:04:47.712Z,0.23
2023-03-06T13:13:43.298Z,0.14
2023-03-06T13:22:28.012Z,0.19
2023-03-06T13:30:53.363Z,0.16
2023-03-06T13:39:52.620Z,0.11
2023-03-06T13:49:50.678Z,0.13
2023-03-06T13:59:20.947Z,0.23
2023-03-06T14:08:17.009Z,0.24
2023-03-06T14:16:49.852Z,0.27
2023-03-06T14:25:29.365Z,0.43
2023-03-06T14:34:14.298Z,0.57
2023-03-06T14:43:34.358Z,0.67
2023-03-06T15:02:54.038Z,1.06
2023-03-06T15:12:41.822Z,1.07
2023-03-06T15:21:40.575Z,0.98
2023-03-06T15:30:23.803Z,0.96
2023-03-06T15:38:48.267Z,0.96
2023-03-06T15:47:12.383Z,0.88
2023-03-06T15:55:38.138Z,0.72
2023-03-06T16:04:02.389Z,0.66
2023-03-06T16:12:49.876Z,0.66
2023-03-06T16:21:20.789Z,0.61
2023-03-06T16:29:48.445Z,0.55
2023-03-06T16:39:04.757Z,0.55
2023-03-06T16:48:07.341Z,0.59
2023-03-06T16:57:27.033Z,0.67
2023-03-06T17:06:35.048Z,0.77
2023-03-06T17:15:05.739Z,0.76
2023-03-06T17:23:30.958Z,0.54
2023-03-06T17:31:54.425Z,0.44
2023-03-06T17:40:17.731Z,0.43
2023-03-06T17:48:41.775Z,0.39
2023-03-06T17:57:06.956Z,0.36
2023-03-06T18:05:30.316Z,0.35
2023-03-06T18:13:53.772Z,0.26
2023-03-06T18:22:17.879Z,0.26
2023-03-06T18:31:02.263Z,0.31
2023-03-06T18:39:25.846Z,0.31
2023-03-06T18:47:50.237Z,0.28
2023-03-06T18:56:24.658Z,0.27
2023-03-06T19:04:49.374Z,0.19
2023-03-06T19:13:18.854Z,0.10
2023-03-06T19:21:42.128Z,0.04
2023-03-06T19:30:07.620Z,0.05
2023-03-06T19:38:33.757Z,0.10
2023-03-06T19:46:57.240Z,0.03
2023-03-06T19:55:20.690Z,-0.09
2023-03-06T20:03:44.342Z,-0.07
2023-03-06T20:12:08.315Z,0.01
2023-03-06T20:20:31.538Z,0.06
2023-03-06T20:28:55.500Z,0.02
2023-03-06T20:37:18.980Z,-0.01
2023-03-06T20:45:55.619Z,0.00
2023-03-06T20:54:18.893Z,-0.05
2023-03-06T21:02:42.002Z,-0.10
2023-03-06T21:11:05.482Z,-0.08
2023-03-06T21:19:28.697Z,-0.01
2023-03-06T21:27:52.313Z,0.02
2023-03-06T21:36:16.319Z,-0.07
2023-03-06T21:44:41.185Z,-0.09
2023-03-06T21:53:05.270Z,-0.08
2023-03-06T22:01:30.641Z,-0.07
2023-03-06T22:09:54.296Z,-0.09
2023-03-06T22:18:17.797Z,-0.08
2023-03-06T22:26:44.414Z,-0.03
2023-03-06T22:35:07.950Z,-0.04
2023-03-06T22:43:31.724Z,-0.14
2023-03-06T22:51:55.748Z,-0.20
2023-03-06T23:00:19.277Z,-0.21
2023-03-06T23:08:42.726Z,-0.21
2023-03-06T23:17:06.596Z,-0.19
2023-03-06T23:25:49.105Z,-0.25
2023-03-06T23:34:12.278Z,-0.25
2023-03-06T23:42:35.615Z,-0.36
2023-03-06T23:50:58.876Z,-0.52
2023-03-06T23:59:22.960Z,-0.66
